Huvudsida
METAR-TAF:

METAR-TAF

Flygplatser :

General Ulpiano Paez Airport

Salina, Ecuador

latitud: 02-12-18S, longitud: 080-59-20W, höjd: 5 m

Aktuellt väderrapport

Denna rapport gjordes för 11 minuter sedan, klockan 13:00 UTC
Vind 5 kt från väst/sydväst
Temperatur 25°C
Fuktighet 83%
Tryck 1012 hPa
Sikt 10 km eller mer
Inga moln under 1 500 m eller inga cumulonimbus

METAR: SESA 201300Z 25005KT CAVOK 25/22 Q1012

Tid: 08:11 (13:11 UTC)


TAF: saknas

Aktuella väderrapporter och prognoser från 4000 flygplatser (METAR- och TAF-rapporter).

De tillgängliga stationerna syns som gula och röda prickar på kartan.

För musen över prickarna för att se namnen på stationerna.

Klicka sedan för att få väderrapporter och prognoser.

För att ändra kartan: Klicka på de gröna knapparna med ett svart kors på för att zooma in; den gröna knappen med ett streck på för att zooma ut; eller på de gröna pilarna för angränsande kartor.


METAR-TAF: